createdAt,value
2023-05-17T00:07:44.746Z,9.55
2023-05-17T00:18:09.957Z,9.45
2023-05-17T00:28:36.643Z,9.25
2023-05-17T00:39:05.447Z,9.07
2023-05-17T00:49:30.554Z,8.94
2023-05-17T00:59:59.750Z,8.79
2023-05-17T01:11:35.080Z,8.54
2023-05-17T01:22:22.066Z,8.26
2023-05-17T01:32:48.908Z,8.12
2023-05-17T01:43:23.944Z,7.98
2023-05-17T01:54:03.041Z,7.85
2023-05-17T02:04:33.712Z,7.73
2023-05-17T02:14:59.894Z,7.68
2023-05-17T02:25:24.628Z,7.46
2023-05-17T02:35:51.202Z,7.25
2023-05-17T02:46:24.970Z,7.12
2023-05-17T02:56:50.277Z,7.12
2023-05-17T03:07:16.085Z,7.10
2023-05-17T03:17:50.992Z,7.01
2023-05-17T03:28:15.987Z,6.79
2023-05-17T03:38:42.714Z,6.68
2023-05-17T03:49:10.671Z,6.67
2023-05-17T03:59:35.871Z,6.63
2023-05-17T04:10:03.894Z,6.72
2023-05-17T04:20:38.276Z,6.97
2023-05-17T04:31:11.382Z,7.19
2023-05-17T04:41:39.630Z,7.42
2023-05-17T04:52:10.327Z,7.69
2023-05-17T05:02:50.463Z,7.95
2023-05-17T05:13:27.342Z,8.15
2023-05-17T05:23:52.764Z,8.36
2023-05-17T05:34:24.723Z,8.45
2023-05-17T05:45:50.408Z,8.66
2023-05-17T05:56:43.599Z,8.91
2023-05-17T06:07:18.978Z,9.01
2023-05-17T06:17:44.598Z,9.25
2023-05-17T06:28:12.968Z,9.42
2023-05-17T06:38:38.202Z,9.50
2023-05-17T06:49:04.202Z,9.55
2023-05-17T06:59:32.648Z,9.74
2023-05-17T07:09:57.693Z,10.04
2023-05-17T07:21:29.599Z,10.31
2023-05-17T07:32:21.172Z,10.53
2023-05-17T07:42:45.956Z,10.85
2023-05-17T07:53:11.609Z,11.15
2023-05-17T08:03:56.942Z,11.36
2023-05-17T08:14:25.564Z,11.81
2023-05-17T08:24:52.008Z,12.14
2023-05-17T08:35:28.603Z,12.42
2023-05-17T08:45:54.822Z,12.80
2023-05-17T08:56:22.244Z,13.13
2023-05-17T09:06:48.494Z,13.18
2023-05-17T09:17:42.201Z,13.25
2023-05-17T09:28:20.421Z,13.43
2023-05-17T09:38:59.001Z,13.70
2023-05-17T09:49:29.112Z,13.75
2023-05-17T09:59:58.404Z,13.70
2023-05-17T10:10:24.192Z,13.70
2023-05-17T10:20:52.798Z,13.76
2023-05-17T10:31:18.815Z,13.87
2023-05-17T10:42:03.451Z,13.92
2023-05-17T10:52:48.506Z,14.13
2023-05-17T11:03:17.486Z,14.20
2023-05-17T11:13:56.146Z,14.21
2023-05-17T11:24:32.987Z,14.43
2023-05-17T11:35:01.349Z,14.93
2023-05-17T11:45:27.506Z,15.41
2023-05-17T11:55:53.790Z,15.43
2023-05-17T12:06:23.149Z,15.56
2023-05-17T12:17:09.548Z,15.81
2023-05-17T12:28:53.684Z,15.92
2023-05-17T12:39:32.624Z,16.08
2023-05-17T12:50:01.987Z,16.58
2023-05-17T13:00:28.002Z,17.00
2023-05-17T13:10:54.438Z,17.04
2023-05-17T13:21:21.511Z,17.04
2023-05-17T13:31:48.225Z,16.97
2023-05-17T13:42:45.695Z,17.17
2023-05-17T13:53:20.512Z,16.93
2023-05-17T14:03:45.549Z,16.73
2023-05-17T14:14:10.876Z,16.53
2023-05-17T14:25:16.732Z,16.50
2023-05-17T14:35:41.660Z,16.53
2023-05-17T14:46:07.912Z,16.64
2023-05-17T14:56:33.116Z,16.23
2023-05-17T15:06:58.319Z,15.58
2023-05-17T15:17:24.097Z,15.27
2023-05-17T15:27:50.303Z,15.00
2023-05-17T15:38:18.335Z,14.99
2023-05-17T15:48:43.914Z,14.92
2023-05-17T15:59:09.798Z,14.84
2023-05-17T16:09:37.687Z,14.69
2023-05-17T16:20:03.515Z,14.59
2023-05-17T16:30:33.008Z,14.42
2023-05-17T16:40:57.803Z,14.44
2023-05-17T16:51:27.881Z,14.33
2023-05-17T17:01:54.335Z,14.38
2023-05-17T17:12:24.791Z,14.34
2023-05-17T17:22:52.767Z,14.46
2023-05-17T17:33:18.874Z,14.39
2023-05-17T17:43:47.589Z,14.19
2023-05-17T17:54:23.096Z,14.02
2023-05-17T18:04:49.061Z,13.91
2023-05-17T18:15:17.195Z,13.82
2023-05-17T18:25:46.615Z,13.70
2023-05-17T18:36:39.672Z,13.42
2023-05-17T18:47:24.045Z,13.10
2023-05-17T18:58:00.352Z,12.79
2023-05-17T19:08:40.517Z,12.32
2023-05-17T19:19:08.697Z,12.03
2023-05-17T19:29:45.165Z,11.92
2023-05-17T19:40:36.620Z,11.76
2023-05-17T19:51:18.426Z,11.59
2023-05-17T20:02:06.295Z,11.42
2023-05-17T20:12:34.394Z,11.13
2023-05-17T20:23:03.916Z,10.88
2023-05-17T21:25:50.422Z,9.63
2023-05-17T21:36:16.079Z,9.55
2023-05-17T21:46:43.018Z,9.41
2023-05-17T21:57:08.815Z,9.22
2023-05-17T22:07:34.539Z,9.13
2023-05-17T22:18:03.729Z,9.05
2023-05-17T22:28:29.548Z,8.96
2023-05-17T22:39:40.630Z,8.81
2023-05-17T22:51:26.037Z,8.76
2023-05-17T23:02:15.006Z,8.51
2023-05-17T23:12:41.429Z,8.43
2023-05-17T23:23:09.699Z,8.43
2023-05-17T23:33:37.280Z,8.38
2023-05-17T23:44:03.267Z,8.27
2023-05-17T23:54:28.723Z,8.07
